Time;durP1;ratioP1;P1;durP2;ratioP2;P2;SDS_P1;SDS_P2;PMS_P1;PMS_P2;Temp;Humidity;BMP_temperature;BMP_pressure;BME280_temperature;BME280_humidity;BME280_pressure;Samples;Min_cycle;Max_cycle;Signal;HPM_P1;HPM_P2
2022/05/08 00:00:32;;;;;;;1287.20;999.90;;;13.90;99.90;;;;;;5033030;28;20603;-76
2022/05/08 00:02:58;;;;;;;1291.10;999.90;;;13.90;99.90;;;;;;5046422;28;20555;-76
2022/05/08 00:05:27;;;;;;;1298.50;999.90;;;13.90;99.90;;;;;;5046791;28;20236;-76
2022/05/08 00:07:53;;;;;;;1281.75;999.90;;;13.90;99.90;;;;;;5049600;28;20233;-76
2022/05/08 00:10:19;;;;;;;1281.20;999.90;;;13.90;99.90;;;;;;5033036;28;20187;-75
2022/05/08 00:12:45;;;;;;;1269.97;999.90;;;13.90;99.90;;;;;;5063684;28;20187;-76
2022/05/08 00:15:11;;;;;;;1261.38;999.90;;;13.80;99.90;;;;;;5033465;28;20265;-76
2022/05/08 00:17:37;;;;;;;1265.05;999.90;;;13.70;99.90;;;;;;5044376;28;20224;-76
2022/05/08 00:20:06;;;;;;;1247.78;999.90;;;13.70;99.90;;;;;;5048674;28;20219;-76
2022/05/08 00:22:32;;;;;;;1252.13;999.90;;;13.60;99.90;;;;;;5033642;28;20183;-76
2022/05/08 00:24:59;;;;;;;1236.97;999.90;;;13.60;99.90;;;;;;5033044;28;20186;-76
2022/05/08 00:27:24;;;;;;;1256.18;999.90;;;13.70;99.90;;;;;;5033862;28;20249;-76
2022/05/08 00:29:50;;;;;;;1241.50;999.90;;;13.70;99.90;;;;;;5032843;28;20233;-76
2022/05/08 00:32:16;;;;;;;1255.65;999.90;;;13.60;99.90;;;;;;5032156;28;20554;-75
2022/05/08 00:34:42;;;;;;;1231.25;999.90;;;13.50;99.90;;;;;;5033965;28;20178;-76
2022/05/08 00:37:07;;;;;;;1208.90;999.90;;;13.40;99.90;;;;;;5032921;28;20544;-76
2022/05/08 00:39:33;;;;;;;1222.32;999.90;;;13.40;99.90;;;;;;5047649;28;20523;-76
2022/05/08 00:41:59;;;;;;;1224.68;999.90;;;13.50;99.90;;;;;;5018833;28;20210;-76
2022/05/08 00:44:25;;;;;;;1217.97;999.90;;;13.50;99.90;;;;;;5032487;28;20273;-76
2022/05/08 00:46:51;;;;;;;1209.60;999.90;;;13.40;99.90;;;;;;5042941;28;20705;-76
2022/05/08 00:49:16;;;;;;;1196.30;999.90;;;13.40;99.90;;;;;;5065761;28;20195;-76
2022/05/08 00:51:47;;;;;;;1196.53;999.90;;;13.40;99.90;;;;;;5049051;28;20190;-76
2022/05/08 00:54:13;;;;;;;1230.25;999.90;;;13.40;99.90;;;;;;5033843;28;20313;-76
2022/05/08 00:56:39;;;;;;;1215.57;999.90;;;13.40;99.90;;;;;;5032614;28;20658;-76
2022/05/08 00:59:09;;;;;;;1203.68;999.90;;;13.50;99.90;;;;;;5032216;28;20192;-76
2022/05/08 01:01:35;;;;;;;1217.85;999.90;;;13.50;99.90;;;;;;5031946;28;20187;-76
2022/05/08 01:04:01;;;;;;;1205.85;999.90;;;13.40;99.90;;;;;;5033703;28;20186;-76
2022/05/08 01:06:28;;;;;;;1207.22;999.90;;;13.50;99.90;;;;;;5034438;28;20186;-76
2022/05/08 01:08:54;;;;;;;1216.63;999.90;;;13.50;99.90;;;;;;5045348;28;20225;-76
2022/05/08 01:11:21;;;;;;;1211.40;999.90;;;13.50;99.90;;;;;;5041895;28;20188;-76
2022/05/08 01:13:46;;;;;;;1214.32;999.90;;;13.40;99.90;;;;;;5047254;28;20189;-76
2022/05/08 01:16:17;;;;;;;1225.22;999.90;;;13.40;99.90;;;;;;5034703;28;20178;-76
2022/05/08 01:18:45;;;;;;;1237.10;999.90;;;13.40;99.90;;;;;;5052123;28;20264;-75
2022/05/08 01:21:14;;;;;;;1235.35;999.90;;;13.40;99.90;;;;;;5033645;28;20182;-75
2022/05/08 01:23:43;;;;;;;1235.93;999.90;;;13.40;99.90;;;;;;5046360;28;20256;-76
2022/05/08 01:26:09;;;;;;;1238.18;999.90;;;13.40;99.90;;;;;;5021098;28;20191;-76
2022/05/08 01:28:36;;;;;;;1226.25;999.90;;;13.40;99.90;;;;;;5032794;28;20252;-76
2022/05/08 01:31:01;;;;;;;1222.15;999.90;;;13.30;99.90;;;;;;5051883;28;20185;-76
2022/05/08 01:33:28;;;;;;;1230.20;999.90;;;13.30;99.90;;;;;;5044121;28;20174;-76
2022/05/08 01:35:54;;;;;;;1226.78;999.90;;;13.30;99.90;;;;;;5031590;28;20187;-76
2022/05/08 01:38:23;;;;;;;1236.10;999.90;;;13.30;99.90;;;;;;5032232;28;20604;-75
2022/05/08 01:40:53;;;;;;;1232.10;999.90;;;13.30;99.90;;;;;;5070572;28;20288;-75
2022/05/08 01:43:18;;;;;;;1226.38;999.90;;;13.20;99.90;;;;;;5040694;28;20175;-75
2022/05/08 01:45:44;;;;;;;1228.43;999.90;;;13.10;99.90;;;;;;5031504;28;20210;-75
2022/05/08 01:48:22;;;;;;;1230.95;999.90;;;13.10;99.90;;;;;;5058238;28;20206;-75
2022/05/08 01:50:53;;;;;;;1238.93;999.90;;;13.10;99.90;;;;;;5033748;28;20281;-75
2022/05/08 01:53:27;;;;;;;1233.38;999.90;;;13.00;99.90;;;;;;5031637;28;20265;-75
2022/05/08 01:55:54;;;;;;;1244.93;999.90;;;13.00;99.90;;;;;;5047736;28;20575;-75
2022/05/08 01:58:27;;;;;;;1243.93;999.90;;;13.20;99.90;;;;;;5036869;28;20219;-75
2022/05/08 02:00:54;;;;;;;1250.78;999.90;;;13.10;99.90;;;;;;5015696;28;20202;-75
2022/05/08 02:03:22;;;;;;;1241.93;999.90;;;13.10;99.90;;;;;;5026019;28;20183;-75
2022/05/08 02:05:50;;;;;;;1242.25;999.90;;;13.00;99.90;;;;;;5015994;28;20190;-75
2022/05/08 02:08:17;;;;;;;1232.90;999.90;;;12.90;99.90;;;;;;5031784;28;20203;-75
2022/05/08 02:10:43;;;;;;;1236.50;999.90;;;12.80;99.90;;;;;;5031435;28;20209;-75
2022/05/08 02:13:09;;;;;;;1246.93;999.90;;;12.70;99.90;;;;;;5048425;28;20237;-75
2022/05/08 02:15:36;;;;;;;1240.20;999.90;;;12.70;99.90;;;;;;5032482;28;20225;-74
2022/05/08 02:18:04;;;;;;;1248.22;999.90;;;12.70;99.90;;;;;;5033129;28;20197;-75
2022/05/08 02:20:30;;;;;;;1252.15;999.90;;;12.70;99.90;;;;;;5031771;28;20214;-75
2022/05/08 02:22:57;;;;;;;1253.05;999.90;;;12.60;99.90;;;;;;5025984;28;20190;-75
2022/05/08 02:25:22;;;;;;;1251.18;999.90;;;12.60;99.90;;;;;;5033113;28;20726;-75
2022/05/08 02:27:51;;;;;;;1258.03;999.90;;;12.60;99.90;;;;;;5030890;28;20285;-75
2022/05/08 02:30:22;;;;;;;1258.55;999.90;;;12.70;99.90;;;;;;5049772;28;20236;-75
2022/05/08 02:32:51;;;;;;;1258.88;999.90;;;12.60;99.90;;;;;;5045475;28;20584;-75
2022/05/08 02:35:17;;;;;;;1262.60;999.90;;;12.50;99.90;;;;;;5044416;28;20182;-75
2022/05/08 02:37:43;;;;;;;1263.13;999.90;;;12.50;99.90;;;;;;5050475;28;20222;-75
2022/05/08 02:40:10;;;;;;;1253.35;999.90;;;12.50;99.90;;;;;;5034783;28;20712;-75
2022/05/08 02:42:36;;;;;;;1261.78;999.90;;;12.40;99.90;;;;;;5036407;28;20202;-74
2022/05/08 02:45:04;;;;;;;1260.80;999.90;;;12.60;99.90;;;;;;5035731;28;20273;-75
2022/05/08 02:47:32;;;;;;;1262.25;999.90;;;12.60;99.90;;;;;;5034689;28;20259;-75
2022/05/08 02:49:58;;;;;;;1263.65;999.90;;;12.70;99.90;;;;;;5034292;28;20236;-75
2022/05/08 02:52:23;;;;;;;1259.07;999.90;;;12.60;99.90;;;;;;5047965;28;20185;-74
2022/05/08 02:54:49;;;;;;;1259.75;999.90;;;12.60;99.90;;;;;;5033515;28;20222;-75
2022/05/08 03:00:06;;;;;;;1251.95;999.90;;;12.50;99.90;;;;;;5034608;28;20583;-75
2022/05/08 03:02:36;;;;;;;1267.47;999.90;;;12.50;99.90;;;;;;5047414;28;20186;-75
2022/05/08 03:05:03;;;;;;;1262.88;999.90;;;12.60;99.90;;;;;;5040169;28;20179;-74
2022/05/08 03:07:29;;;;;;;1259.90;999.90;;;12.50;99.90;;;;;;5019936;28;20564;-74
2022/05/08 03:09:55;;;;;;;1250.93;999.90;;;12.40;99.90;;;;;;5042847;28;20185;-75
2022/05/08 03:12:21;;;;;;;1262.32;999.90;;;12.40;99.90;;;;;;5037370;28;20659;-75
2022/05/08 03:14:46;;;;;;;1244.65;999.90;;;12.40;99.90;;;;;;5018058;28;20272;-75
2022/05/08 03:17:12;;;;;;;1237.20;999.90;;;12.40;99.90;;;;;;5034151;28;20218;-75
2022/05/08 03:19:37;;;;;;;1240.10;999.90;;;12.40;99.90;;;;;;5044763;28;20182;-75
2022/05/08 03:22:03;;;;;;;1243.68;999.90;;;12.40;99.90;;;;;;5052519;28;20182;-75
2022/05/08 03:24:29;;;;;;;1261.50;999.90;;;12.50;99.90;;;;;;5035047;28;20178;-74
2022/05/08 03:26:56;;;;;;;1255.43;999.90;;;12.60;99.90;;;;;;5075951;28;20178;-74
2022/05/08 03:29:27;;;;;;;1251.90;999.90;;;12.70;99.90;;;;;;5033318;28;20199;-75
2022/05/08 03:31:54;;;;;;;1259.13;999.90;;;12.80;99.90;;;;;;5033678;28;20178;-75
2022/05/08 03:34:19;;;;;;;1250.70;999.90;;;12.80;99.90;;;;;;5034815;28;20644;-75
2022/05/08 03:36:45;;;;;;;1250.05;999.90;;;12.70;99.90;;;;;;5050240;28;20195;-74
2022/05/08 03:39:11;;;;;;;1244.30;999.90;;;12.60;99.90;;;;;;5048013;28;20240;-75
2022/05/08 03:41:38;;;;;;;1257.70;999.90;;;12.70;99.90;;;;;;5044245;28;20178;-74
2022/05/08 03:44:04;;;;;;;1248.18;999.90;;;12.70;99.90;;;;;;5052083;28;20185;-74
2022/05/08 03:46:29;;;;;;;1250.30;999.90;;;12.60;99.90;;;;;;5036133;28;20194;-74
2022/05/08 03:48:55;;;;;;;1246.38;999.90;;;12.50;99.90;;;;;;5041096;28;20583;-74
2022/05/08 03:51:21;;;;;;;1237.93;999.90;;;12.50;99.90;;;;;;5042439;28;20274;-74
2022/05/08 03:53:47;;;;;;;1256.20;999.90;;;12.40;99.90;;;;;;5076772;28;20659;-74
2022/05/08 03:56:13;;;;;;;1260.50;999.90;;;12.40;99.90;;;;;;5052548;28;20623;-74
2022/05/08 03:58:39;;;;;;;1252.07;999.90;;;12.40;99.90;;;;;;5033155;28;20182;-75
2022/05/08 04:01:05;;;;;;;1255.05;999.90;;;12.40;99.90;;;;;;5016500;28;20289;-75
2022/05/08 04:03:30;;;;;;;1232.18;999.90;;;12.30;99.90;;;;;;5033256;28;20209;-75
2022/05/08 04:05:56;;;;;;;1244.10;999.90;;;12.30;99.90;;;;;;5033225;28;20197;-74
2022/05/08 04:08:21;;;;;;;1245.45;999.90;;;12.20;99.90;;;;;;5049884;28;20194;-74
2022/05/08 04:10:47;;;;;;;1238.32;999.90;;;12.10;99.90;;;;;;5033353;28;20671;-74
2022/05/08 04:13:13;;;;;;;1245.70;999.90;;;12.20;99.90;;;;;;5034398;28;20265;-74
2022/05/08 04:18:22;;;;;;;1236.25;999.90;;;12.30;99.90;;;;;;5032971;28;20206;-74
2022/05/08 04:20:48;;;;;;;1240.35;999.90;;;12.40;99.90;;;;;;5032563;28;20186;-74
2022/05/08 04:25:58;;;;;;;1237.50;999.90;;;12.30;99.90;;;;;;5042845;28;20563;-74
2022/05/08 04:28:28;;;;;;;1236.72;999.90;;;12.10;99.90;;;;;;5034190;28;20659;-74
2022/05/08 04:30:53;;;;;;;1243.78;999.90;;;12.10;99.90;;;;;;5032803;28;20198;-73
2022/05/08 04:33:19;;;;;;;1249.03;999.90;;;12.10;99.90;;;;;;5032568;28;20190;-74
2022/05/08 04:35:45;;;;;;;1247.53;999.90;;;12.00;99.90;;;;;;5032478;28;20190;-74
2022/05/08 04:38:12;;;;;;;1222.75;999.90;;;12.00;99.90;;;;;;5025568;28;20272;-73
2022/05/08 04:40:39;;;;;;;1221.80;999.90;;;12.10;99.90;;;;;;5031587;28;20187;-74
2022/05/08 04:43:05;;;;;;;1235.97;999.90;;;12.10;99.90;;;;;;5045005;28;20197;-74
2022/05/08 04:45:31;;;;;;;1237.32;999.90;;;12.10;99.90;;;;;;5031877;28;20183;-74
2022/05/08 04:47:56;;;;;;;1227.60;999.90;;;12.00;99.90;;;;;;5047619;28;20580;-74
2022/05/08 04:50:22;;;;;;;1223.50;999.90;;;12.00;99.90;;;;;;5033440;28;20201;-74
2022/05/08 04:52:48;;;;;;;1214.43;999.90;;;12.00;99.90;;;;;;5032596;28;20193;-74
2022/05/08 04:55:13;;;;;;;1219.03;999.90;;;12.10;99.90;;;;;;5050129;28;20232;-75
2022/05/08 04:57:39;;;;;;;1235.63;999.90;;;12.20;99.90;;;;;;5039254;28;20202;-74
2022/05/08 05:00:05;;;;;;;1238.63;999.90;;;12.20;99.90;;;;;;5032187;28;20256;-75
2022/05/08 05:02:33;;;;;;;1194.25;999.90;;;12.20;99.90;;;;;;5032306;28;20187;-74
2022/05/08 05:05:00;;;;;;;1219.25;999.90;;;12.20;99.90;;;;;;5032177;28;20198;-74
2022/05/08 05:07:26;;;;;;;1216.65;999.90;;;12.20;99.90;;;;;;5033235;28;20245;-74
2022/05/08 05:09:52;;;;;;;1211.85;999.90;;;12.20;99.90;;;;;;5031873;28;20255;-74
2022/05/08 05:12:18;;;;;;;1229.65;999.90;;;12.20;99.90;;;;;;5065312;28;20670;-74
2022/05/08 05:14:44;;;;;;;1229.88;999.90;;;12.20;99.90;;;;;;5033483;28;20187;-73
2022/05/08 05:17:09;;;;;;;1216.13;999.90;;;12.10;99.90;;;;;;5065378;28;20195;-73
2022/05/08 05:19:38;;;;;;;1185.63;999.90;;;12.20;99.90;;;;;;5048736;28;20635;-74
2022/05/08 05:22:04;;;;;;;1199.75;999.90;;;12.30;99.90;;;;;;5031693;28;20261;-74
2022/05/08 05:24:30;;;;;;;1213.07;999.90;;;12.60;99.90;;;;;;5032157;28;20320;-73
2022/05/08 05:26:56;;;;;;;1204.72;999.90;;;12.60;99.90;;;;;;5032994;28;20186;-73
2022/05/08 05:29:21;;;;;;;1214.03;999.90;;;12.40;99.90;;;;;;5032775;28;20185;-73
2022/05/08 05:31:47;;;;;;;1196.13;999.90;;;12.40;99.90;;;;;;5038365;28;20190;-73
2022/05/08 05:34:13;;;;;;;1203.43;999.90;;;12.40;99.90;;;;;;5049341;28;20192;-74
2022/05/08 05:36:38;;;;;;;1211.55;999.90;;;12.40;99.90;;;;;;5031916;28;20183;-74
2022/05/08 05:39:04;;;;;;;1195.07;999.90;;;12.50;99.90;;;;;;5038518;28;20190;-74
2022/05/08 05:41:30;;;;;;;1196.30;999.90;;;12.50;99.90;;;;;;5048550;28;20277;-74
2022/05/08 05:43:57;;;;;;;1193.70;999.90;;;12.40;99.90;;;;;;5018180;28;20194;-74
2022/05/08 05:49:06;;;;;;;1223.55;999.90;;;12.40;99.90;;;;;;5032082;28;20765;-74
2022/05/08 05:51:32;;;;;;;1209.30;999.90;;;12.20;99.90;;;;;;5039249;28;20214;-74
2022/05/08 05:53:58;;;;;;;1238.25;999.90;;;12.20;99.90;;;;;;5033760;28;20212;-74
2022/05/08 05:56:23;;;;;;;1202.72;999.90;;;12.20;99.90;;;;;;5051454;28;20212;-74
2022/05/08 05:58:49;;;;;;;1209.15;999.90;;;12.20;99.90;;;;;;5034680;28;20191;-74
2022/05/08 06:01:17;;;;;;;1208.15;999.90;;;12.30;99.90;;;;;;5038525;28;20195;-74
2022/05/08 06:03:42;;;;;;;1197.28;999.90;;;12.40;99.90;;;;;;5034459;28;20178;-74
2022/05/08 06:06:08;;;;;;;1214.57;999.90;;;12.60;99.90;;;;;;5047226;28;20183;-74
2022/05/08 06:08:34;;;;;;;1219.15;999.90;;;12.70;99.90;;;;;;5036053;28;20203;-75
2022/05/08 06:10:59;;;;;;;1198.35;999.90;;;12.80;99.90;;;;;;5036626;28;20194;-74
2022/05/08 06:13:25;;;;;;;1218.90;999.90;;;12.80;99.90;;;;;;5046202;28;20326;-74
2022/05/08 06:15:53;;;;;;;1216.80;999.90;;;12.60;99.90;;;;;;5048055;28;20195;-74
2022/05/08 06:18:19;;;;;;;1215.70;999.90;;;12.50;99.90;;;;;;5042821;28;20197;-74
2022/05/08 06:20:45;;;;;;;1213.28;999.90;;;12.50;99.90;;;;;;5049765;28;20179;-74
2022/05/08 06:23:11;;;;;;;1207.78;999.90;;;12.50;99.90;;;;;;5036239;28;20183;-75
2022/05/08 06:25:41;;;;;;;1204.78;999.90;;;12.60;99.90;;;;;;5037101;28;20205;-74
2022/05/08 06:28:07;;;;;;;1235.07;999.90;;;12.70;99.90;;;;;;5019157;28;20273;-74
2022/05/08 06:30:33;;;;;;;1221.15;999.90;;;12.70;99.90;;;;;;5034433;28;20194;-74
2022/05/08 06:32:58;;;;;;;1224.97;999.90;;;12.70;99.90;;;;;;5035106;28;20194;-75
2022/05/08 06:35:24;;;;;;;1218.18;999.90;;;12.70;99.90;;;;;;5052353;28;20182;-75
2022/05/08 06:37:50;;;;;;;1219.05;999.90;;;13.00;99.90;;;;;;5042159;28;20209;-74
2022/05/08 06:40:15;;;;;;;1230.75;999.90;;;13.30;99.90;;;;;;5035963;28;20194;-75
2022/05/08 06:42:41;;;;;;;1242.95;999.90;;;13.30;99.90;;;;;;5034752;28;20677;-76
2022/05/08 06:45:08;;;;;;;1266.40;999.90;;;13.60;99.90;;;;;;5035593;28;20669;-75
2022/05/08 06:47:34;;;;;;;1260.97;999.90;;;13.50;99.90;;;;;;5033851;28;20202;-76
2022/05/08 06:49:59;;;;;;;1266.50;999.90;;;13.50;99.90;;;;;;5038556;28;20201;-75
2022/05/08 06:52:25;;;;;;;1245.65;999.90;;;13.60;99.90;;;;;;5046185;28;20654;-74
2022/05/08 06:54:50;;;;;;;1270.63;999.90;;;13.40;99.90;;;;;;5043452;28;20198;-75
2022/05/08 06:57:16;;;;;;;1250.75;999.90;;;13.50;99.90;;;;;;5034531;28;20670;-75
2022/05/08 07:02:26;;;;;;;1256.75;999.90;;;13.40;99.90;;;;;;5034727;28;20194;-74
2022/05/08 07:04:52;;;;;;;1241.75;999.90;;;13.50;99.90;;;;;;5034524;28;20182;-76
2022/05/08 07:07:20;;;;;;;1256.70;999.90;;;13.50;99.90;;;;;;5042178;28;20198;-75
2022/05/08 07:09:46;;;;;;;1231.97;999.90;;;13.90;99.90;;;;;;5044303;28;20598;-75
2022/05/08 07:12:11;;;;;;;1205.70;999.90;;;13.80;99.90;;;;;;5044366;28;20266;-74
2022/05/08 07:14:40;;;;;;;1218.25;999.90;;;13.70;99.90;;;;;;5050249;28;20202;-75
2022/05/08 07:17:06;;;;;;;1179.88;999.90;;;14.10;99.90;;;;;;5033875;28;20170;-75
2022/05/08 07:19:32;;;;;;;1156.75;999.90;;;14.50;99.90;;;;;;5037303;28;20636;-75
2022/05/08 07:21:58;;;;;;;1091.22;998.92;;;14.30;99.90;;;;;;5035139;28;20182;-74
2022/05/08 07:24:23;;;;;;;1013.38;937.50;;;14.30;99.90;;;;;;5066947;28;20186;-76
2022/05/08 07:26:49;;;;;;;974.45;906.25;;;14.40;99.90;;;;;;5033356;28;20179;-76
2022/05/08 07:29:15;;;;;;;918.30;852.67;;;14.60;99.90;;;;;;5066691;28;20191;-75
2022/05/08 07:31:42;;;;;;;909.95;848.03;;;15.30;99.90;;;;;;5034875;28;20647;-75
2022/05/08 07:36:52;;;;;;;457.10;422.90;;;17.40;99.90;;;;;;5033558;28;20197;-75
2022/05/08 07:39:18;;;;;;;976.22;899.80;;;17.70;99.90;;;;;;5021250;28;20185;-75
2022/05/08 07:41:44;;;;;;;1091.10;994.25;;;16.80;99.90;;;;;;5040906;28;20194;-75
2022/05/08 07:44:09;;;;;;;1284.60;999.90;;;16.60;99.90;;;;;;5049756;28;20191;-75
2022/05/08 07:46:35;;;;;;;1285.75;999.90;;;16.60;99.90;;;;;;5035031;28;20186;-75
2022/05/08 07:49:01;;;;;;;1292.82;999.90;;;16.50;99.90;;;;;;5033709;28;20297;-74
2022/05/08 07:51:26;;;;;;;1234.28;999.90;;;16.80;99.90;;;;;;5034937;28;20632;-74
2022/05/08 07:53:52;;;;;;;1314.80;999.90;;;17.20;99.90;;;;;;5034754;28;20194;-75
2022/05/08 07:56:18;;;;;;;1479.93;999.90;;;18.30;99.90;;;;;;5034807;28;20195;-77
2022/05/08 07:58:43;;;;;;;1762.95;999.90;;;18.80;99.90;;;;;;5016940;28;20190;-72
2022/05/08 08:01:10;;;;;;;1753.00;999.90;;;18.50;99.90;;;;;;5034588;28;20632;-75
2022/05/08 08:03:36;;;;;;;1770.68;999.90;;;18.30;99.90;;;;;;5034298;28;20182;-81
2022/05/08 08:06:02;;;;;;;1967.55;999.90;;;19.40;99.90;;;;;;5032862;28;20202;-75
2022/05/08 08:08:28;;;;;;;1990.15;999.90;;;19.90;99.90;;;;;;5034023;28;20667;-74
2022/05/08 08:10:56;;;;;;;1999.90;999.90;;;19.90;99.90;;;;;;5050190;28;20187;-83
2022/05/08 08:13:30;;;;;;;1999.90;999.90;;;20.20;99.90;;;;;;5017079;28;20245;-76
2022/05/08 08:15:57;;;;;;;1982.15;999.90;;;19.60;99.90;;;;;;5066299;28;20261;-75
2022/05/08 08:18:23;;;;;;;1999.15;999.90;;;19.80;99.90;;;;;;5048498;28;20194;-72
2022/05/08 08:20:49;;;;;;;1986.22;999.90;;;20.00;99.90;;;;;;5032993;28;20181;-77
2022/05/08 08:23:15;;;;;;;1747.90;977.83;;;20.20;99.90;;;;;;5032523;28;20191;-74
2022/05/08 08:25:40;;;;;;;1993.10;999.90;;;20.70;99.90;;;;;;5075150;28;20174;-73
2022/05/08 08:28:06;;;;;;;1978.18;999.90;;;21.80;99.90;;;;;;5046179;28;20217;-74
2022/05/08 08:30:33;;;;;;;1255.63;687.47;;;22.30;99.90;;;;;;5031757;28;20262;-74
2022/05/08 08:33:00;;;;;;;1648.47;920.28;;;21.20;99.90;;;;;;5033737;28;20187;-74
2022/05/08 08:35:26;;;;;;;1587.07;886.38;;;21.70;99.90;;;;;;5032332;28;20182;-74
2022/05/08 08:37:54;;;;;;;1279.95;716.38;;;21.30;99.90;;;;;;5065837;28;20518;-74
2022/05/08 08:40:20;;;;;;;1829.18;933.05;;;21.30;99.90;;;;;;5032757;28;20194;-74
2022/05/08 08:42:47;;;;;;;983.33;543.45;;;21.70;99.90;;;;;;5046587;28;20181;-74
2022/05/08 08:48:10;;;;;;;1999.90;999.90;;;21.60;99.90;;;;;;5032325;28;20629;-74
2022/05/08 08:50:36;;;;;;;1999.90;999.90;;;22.10;99.90;;;;;;5032670;28;20179;-75
2022/05/08 08:53:05;;;;;;;1999.90;999.90;;;22.00;99.90;;;;;;5026952;28;20187;-75
2022/05/08 08:55:32;;;;;;;1733.15;881.22;;;21.70;99.90;;;;;;5050022;28;20182;-70
2022/05/08 08:57:58;;;;;;;1999.90;999.90;;;21.10;99.90;;;;;;5038452;28;20214;-74
2022/05/08 09:00:27;;;;;;;1999.90;999.90;;;21.50;99.90;;;;;;5031898;28;20198;-73
2022/05/08 09:02:55;;;;;;;1999.90;999.90;;;20.90;99.90;;;;;;5048996;28;20213;-74
2022/05/08 09:05:22;;;;;;;1688.28;855.47;;;21.10;99.90;;;;;;5032095;28;20218;-73
2022/05/08 09:07:53;;;;;;;1999.90;999.90;;;21.10;99.90;;;;;;5033787;28;20198;-73
2022/05/08 09:10:24;;;;;;;1999.90;999.90;;;21.10;99.90;;;;;;5032310;28;20186;-75
2022/05/08 09:12:52;;;;;;;1691.88;857.42;;;21.40;99.90;;;;;;5042975;28;20201;-75
2022/05/08 09:15:25;;;;;;;1999.90;999.90;;;21.30;99.90;;;;;;5040018;28;20186;-74
2022/05/08 09:17:56;;;;;;;1999.90;999.90;;;20.60;99.90;;;;;;5033548;28;20224;-74
2022/05/08 09:20:51;;;;;;;1696.50;858.67;;;19.80;99.90;;;;;;5033274;28;20705;-73
2022/05/08 09:23:18;;;;;;;1099.80;589.40;;;19.10;99.90;;;;;;5044527;28;20175;-74
2022/05/08 09:25:56;;;;;;;1482.68;846.28;;;18.80;99.90;;;;;;5032016;28;20238;-73
2022/05/08 09:28:42;;;;;;;1567.28;898.22;;;18.50;99.90;;;;;;5052972;28;20209;-73
2022/05/08 09:31:08;;;;;;;1803.50;999.90;;;18.10;99.90;;;;;;5051536;28;20242;-73
2022/05/08 09:33:42;;;;;;;1985.40;999.90;;;18.00;99.90;;;;;;5048608;28;20182;-73
2022/05/08 09:36:19;;;;;;;1999.90;999.90;;;17.70;99.90;;;;;;5046222;28;20217;-73
2022/05/08 09:38:53;;;;;;;1999.90;999.90;;;17.80;99.90;;;;;;5049912;28;20268;-73
2022/05/08 09:41:28;;;;;;;1910.05;999.90;;;18.00;99.90;;;;;;5040696;28;20178;-74
2022/05/08 09:44:15;;;;;;;1992.65;999.90;;;18.10;99.90;;;;;;5051646;28;20178;-73
2022/05/08 09:46:47;;;;;;;1945.50;999.90;;;18.00;99.90;;;;;;5036646;28;20206;-74
2022/05/08 09:49:17;;;;;;;1999.90;999.90;;;18.20;99.90;;;;;;5036642;28;20233;-73
2022/05/08 09:51:43;;;;;;;1947.65;999.90;;;18.10;99.90;;;;;;5052593;28;20182;-73
2022/05/08 09:54:09;;;;;;;1913.65;999.90;;;17.90;99.90;;;;;;5033960;28;20212;-73
2022/05/08 09:56:36;;;;;;;1929.13;999.90;;;17.90;99.90;;;;;;5019615;28;20178;-73
2022/05/08 09:59:06;;;;;;;1889.45;999.90;;;17.90;99.90;;;;;;5035760;28;20225;-73
2022/05/08 10:01:32;;;;;;;1822.55;999.90;;;17.70;99.90;;;;;;5034831;28;20189;-74
2022/05/08 10:03:58;;;;;;;1864.43;999.90;;;17.70;99.90;;;;;;5035398;28;20191;-74
2022/05/08 10:06:27;;;;;;;1918.75;999.90;;;17.90;99.90;;;;;;5035783;28;20186;-74
2022/05/08 10:13:53;;;;;;;1830.00;999.90;;;17.80;99.90;;;;;;5036329;28;20301;-74
2022/05/08 10:14:30;;;;;;;1785.20;999.90;;;18.00;99.90;;;;;;5035686;28;20287;-75
2022/05/08 10:17:05;;;;;;;1883.05;999.90;;;17.60;99.90;;;;;;5036525;28;20648;-75
2022/05/08 10:19:31;;;;;;;1924.72;999.90;;;17.80;99.90;;;;;;5023953;28;20184;-74
2022/05/08 10:22:06;;;;;;;1907.03;999.90;;;17.90;99.90;;;;;;5044730;28;20183;-75
2022/05/08 10:24:53;;;;;;;1898.15;999.90;;;18.00;99.90;;;;;;5036601;28;20192;-74
2022/05/08 10:27:26;;;;;;;1999.90;999.90;;;17.90;99.90;;;;;;5036032;28;20590;-75
2022/05/08 10:29:52;;;;;;;1962.95;999.90;;;17.90;99.90;;;;;;5034995;28;20187;-74
2022/05/08 10:32:33;;;;;;;1895.65;999.90;;;17.60;99.90;;;;;;5034818;28;20587;-75
2022/05/08 10:35:15;;;;;;;1938.80;999.90;;;17.50;99.90;;;;;;5036096;28;20232;-75
2022/05/08 10:37:42;;;;;;;1946.70;999.90;;;17.70;99.90;;;;;;5083639;28;20178;-74
2022/05/08 10:40:23;;;;;;;1968.68;999.90;;;17.90;99.90;;;;;;5054733;28;20236;-74
2022/05/08 10:43:00;;;;;;;1989.25;999.90;;;18.20;99.90;;;;;;5051713;28;20187;-74
2022/05/08 10:45:32;;;;;;;1967.85;999.90;;;18.30;99.90;;;;;;5034453;28;20178;-74
2022/05/08 10:48:07;;;;;;;1961.57;999.90;;;17.90;99.90;;;;;;5067700;28;20202;-74
2022/05/08 10:50:33;;;;;;;1964.63;999.90;;;17.90;99.90;;;;;;5040912;28;20185;-74
2022/05/08 10:52:59;;;;;;;1999.90;999.90;;;17.80;99.90;;;;;;5035123;28;20194;-74
2022/05/08 10:55:26;;;;;;;1976.72;999.90;;;18.10;99.90;;;;;;5043098;28;20178;-75
2022/05/08 10:57:53;;;;;;;1931.88;999.90;;;18.30;99.90;;;;;;5031296;28;20187;-75
2022/05/08 11:00:27;;;;;;;1999.18;999.90;;;18.30;99.90;;;;;;5035881;28;20217;-75
2022/05/08 11:02:58;;;;;;;1954.03;999.90;;;18.20;99.90;;;;;;5041283;28;20174;-75
2022/05/08 11:05:28;;;;;;;1999.90;999.90;;;18.30;99.90;;;;;;5035704;28;20167;-74
2022/05/08 11:07:57;;;;;;;1999.90;999.90;;;18.20;99.90;;;;;;5035387;28;20214;-76
2022/05/08 11:10:28;;;;;;;1999.90;999.90;;;18.10;99.90;;;;;;5035144;28;20672;-74
2022/05/08 11:13:09;;;;;;;1999.43;999.90;;;18.20;99.90;;;;;;5035068;28;20186;-74
2022/05/08 11:15:36;;;;;;;1999.90;999.90;;;18.40;99.90;;;;;;5033837;28;20605;-74
2022/05/08 11:18:09;;;;;;;1999.90;999.90;;;18.60;99.90;;;;;;5022480;28;20178;-74
2022/05/08 11:20:45;;;;;;;1999.90;999.90;;;18.50;99.90;;;;;;5039521;28;20277;-73
2022/05/08 11:23:12;;;;;;;1999.90;999.90;;;18.70;99.90;;;;;;5035103;28;20170;-74
2022/05/08 11:25:38;;;;;;;1999.90;999.90;;;18.70;99.90;;;;;;5066717;28;20229;-74
2022/05/08 11:28:04;;;;;;;1999.90;999.90;;;18.70;99.90;;;;;;5042886;28;20209;-74
2022/05/08 11:30:32;;;;;;;1999.90;999.90;;;18.50;99.90;;;;;;5037946;28;20198;-74
2022/05/08 11:36:06;;;;;;;1998.13;999.90;;;18.30;99.90;;;;;;5034392;28;20248;-73
2022/05/08 11:38:48;;;;;;;1999.90;999.90;;;18.20;99.90;;;;;;5033362;28;20190;-73
2022/05/08 11:41:19;;;;;;;1999.90;999.90;;;18.10;99.90;;;;;;5035085;28;20166;-73
2022/05/08 11:43:50;;;;;;;1999.90;999.90;;;18.40;99.90;;;;;;5033193;28;20182;-74
2022/05/08 11:46:31;;;;;;;1999.90;999.90;;;18.40;99.90;;;;;;5084247;28;20181;-74
2022/05/08 11:48:56;;;;;;;1999.90;999.90;;;18.60;99.90;;;;;;5034763;28;20206;-74
2022/05/08 11:51:22;;;;;;;1999.90;999.90;;;18.90;99.90;;;;;;5020123;28;20233;-74
2022/05/08 11:53:52;;;;;;;1999.90;999.90;;;18.90;99.90;;;;;;5033441;28;20241;-74
2022/05/08 11:56:30;;;;;;;1999.90;999.90;;;18.90;99.90;;;;;;5034648;28;20178;-74
2022/05/08 11:58:58;;;;;;;1999.90;999.90;;;19.10;99.90;;;;;;5034459;28;20171;-75
2022/05/08 12:01:28;;;;;;;1992.00;999.90;;;19.10;99.90;;;;;;5052227;28;20200;-71
2022/05/08 12:03:58;;;;;;;1999.90;999.90;;;19.10;99.90;;;;;;5035269;28;20551;-77
2022/05/08 12:06:24;;;;;;;1999.90;999.90;;;19.00;99.90;;;;;;5037397;28;20178;-80
2022/05/08 12:08:50;;;;;;;1999.90;999.90;;;18.80;99.90;;;;;;5056252;28;20300;-78
2022/05/08 12:11:33;;;;;;;1999.90;999.90;;;18.90;99.90;;;;;;5041223;28;20202;-77
2022/05/08 12:14:08;;;;;;;1999.90;999.90;;;18.90;99.90;;;;;;5041625;28;20185;-77
2022/05/08 12:16:34;;;;;;;1999.90;999.90;;;19.10;99.90;;;;;;5034779;28;20196;-77
2022/05/08 12:19:19;;;;;;;1999.90;999.90;;;19.10;99.90;;;;;;5032692;28;20217;-77
2022/05/08 12:21:48;;;;;;;1999.90;999.90;;;19.20;99.90;;;;;;5032836;28;20190;-80
2022/05/08 12:24:19;;;;;;;1999.90;999.90;;;19.00;99.90;;;;;;5034628;28;20612;-80
2022/05/08 12:26:49;;;;;;;1999.90;999.90;;;19.10;99.90;;;;;;5028161;28;20535;-79